Time;durP1;ratioP1;P1;durP2;ratioP2;P2;SDS_P1;SDS_P2;PMS_P1;PMS_P2;Temp;Humidity;BMP_temperature;BMP_pressure;BME280_temperature;BME280_humidity;BME280_pressure;Samples;Min_cycle;Max_cycle;Signal;HPM_P1;HPM_P2
2023/02/28 00:00:52;;;;;;;5.18;3.25;;;;;;;-4.29;100.00;93219.13;2571052;22;20343;-86
2023/02/28 00:01:53;;;;;;;6.07;3.92;;;;;;;-4.28;100.00;93218.78;2584954;23;20000;-85
2023/02/28 00:02:56;;;;;;;5.00;3.65;;;;;;;-4.51;100.00;93222.81;2572559;22;20007;-86
2023/02/28 00:04:03;;;;;;;8.48;3.70;;;;;;;-4.54;100.00;93218.97;2572940;23;20008;-85
2023/02/28 00:05:05;;;;;;;7.18;3.70;;;;;;;-4.56;100.00;93218.53;2575152;22;20008;-84
2023/02/28 00:06:09;;;;;;;5.97;4.07;;;;;;;-4.61;100.00;93226.53;2572324;23;20536;-85
2023/02/28 00:07:11;;;;;;;3.90;3.50;;;;;;;-4.39;100.00;93226.25;2573109;22;20005;-86
2023/02/28 00:08:13;;;;;;;8.80;3.83;;;;;;;-4.41;100.00;93225.03;2583979;22;20583;-84
2023/02/28 00:09:13;;;;;;;4.38;3.42;;;;;;;-4.46;100.00;93215.53;2583214;22;20008;-85
2023/02/28 00:10:27;;;;;;;5.55;3.50;;;;;;;-4.39;100.00;93228.06;2570299;23;20005;-86
2023/02/28 00:11:41;;;;;;;4.85;3.80;;;;;;;-4.53;100.00;93220.50;2575953;22;20001;-86
2023/02/28 00:12:42;;;;;;;7.53;3.80;;;;;;;-4.39;100.00;93222.84;2572893;23;20005;-86
2023/02/28 00:13:46;;;;;;;4.43;3.90;;;;;;;-4.51;100.00;93217.59;2570451;22;20001;-86
2023/02/28 00:14:50;;;;;;;5.55;3.67;;;;;;;-4.57;100.00;93211.78;2583308;22;20011;-85
2023/02/28 00:16:06;;;;;;;5.03;3.80;;;;;;;-4.48;100.00;93215.09;2583186;22;20020;-86
2023/02/28 00:17:07;;;;;;;4.65;3.60;;;;;;;-4.54;100.00;93203.34;2573672;23;20031;-85
2023/02/28 00:18:09;;;;;;;3.90;3.47;;;;;;;-4.49;100.00;93208.34;2558198;23;20016;-85
2023/02/28 00:19:13;;;;;;;5.70;4.03;;;;;;;-4.51;100.00;93212.38;2583181;22;20158;-85
2023/02/28 00:20:15;;;;;;;5.43;3.88;;;;;;;-4.50;100.00;93214.66;2596308;22;20446;-86
2023/02/28 00:21:20;;;;;;;6.28;3.83;;;;;;;-4.47;100.00;93211.41;2571591;23;20083;-85
2023/02/28 00:22:22;;;;;;;6.65;4.00;;;;;;;-4.45;100.00;93208.47;2571240;23;20086;-86
2023/02/28 00:23:31;;;;;;;7.22;3.67;;;;;;;-4.42;100.00;93210.47;2570013;22;20085;-85
2023/02/28 00:24:32;;;;;;;4.35;3.95;;;;;;;-4.40;100.00;93210.91;2585036;22;20004;-85
2023/02/28 00:25:36;;;;;;;4.60;3.63;;;;;;;-4.42;100.00;93213.84;2571178;23;20024;-85
2023/02/28 00:26:37;;;;;;;4.25;3.42;;;;;;;-4.35;100.00;93203.63;2584412;22;20004;-85
2023/02/28 00:27:40;;;;;;;4.10;3.65;;;;;;;-4.37;100.00;93207.66;2594970;22;20007;-88
2023/02/28 00:28:41;;;;;;;3.50;3.20;;;;;;;-4.32;100.00;93212.66;2583164;22;20055;-86
2023/02/28 00:29:41;;;;;;;4.40;4.00;;;;;;;-4.25;100.00;93206.97;2583251;22;19996;-86
2023/02/28 00:30:42;;;;;;;4.40;3.63;;;;;;;-4.39;100.00;93210.59;2581503;22;20000;-85
2023/02/28 00:31:44;;;;;;;5.38;3.30;;;;;;;-4.38;100.00;93206.13;2570322;23;20028;-86
2023/02/28 00:32:57;;;;;;;6.43;4.10;;;;;;;-4.45;100.00;93208.47;2561920;23;20009;-85
2023/02/28 00:33:58;;;;;;;5.80;3.75;;;;;;;-4.45;100.00;93204.03;2560168;23;20006;-86
2023/02/28 00:34:59;;;;;;;3.97;3.38;;;;;;;-4.20;100.00;93204.13;2583366;22;20011;-83
2023/02/28 00:36:03;;;;;;;5.03;3.55;;;;;;;-4.25;100.00;93197.28;2583041;23;20098;-85
2023/02/28 00:37:12;;;;;;;4.60;3.50;;;;;;;-4.43;100.00;93208.94;2571563;22;20036;-84
2023/02/28 00:38:14;;;;;;;4.93;3.80;;;;;;;-4.42;100.00;93210.47;2571793;23;20629;-86
2023/02/28 00:39:21;;;;;;;5.35;4.20;;;;;;;-4.34;100.00;93212.25;2570434;22;20307;-87
2023/02/28 00:40:23;;;;;;;4.53;3.70;;;;;;;-4.22;100.00;93199.22;2584962;22;20105;-85
2023/02/28 00:41:24;;;;;;;5.25;4.10;;;;;;;-4.34;100.00;93199.97;2589932;22;20417;-84
2023/02/28 00:42:25;;;;;;;5.10;3.45;;;;;;;-4.22;100.00;93201.06;2602554;22;20018;-85
2023/02/28 00:43:29;;;;;;;3.65;3.35;;;;;;;-4.26;100.00;93200.19;2599296;22;20023;-84
2023/02/28 00:44:31;;;;;;;4.25;3.85;;;;;;;-4.27;100.00;93204.66;2586282;22;20035;-85
2023/02/28 00:45:32;;;;;;;4.20;3.78;;;;;;;-4.36;100.00;93211.78;2573427;23;20021;-85
2023/02/28 00:46:33;;;;;;;4.28;3.80;;;;;;;-4.31;100.00;93207.13;2560209;23;20008;-86
2023/02/28 00:47:36;;;;;;;5.32;3.53;;;;;;;-4.25;100.00;93206.97;2572777;22;20010;-84
2023/02/28 00:48:37;;;;;;;4.90;3.67;;;;;;;-4.34;100.00;93194.75;2584472;22;20000;-86
2023/02/28 00:49:39;;;;;;;4.47;3.85;;;;;;;-4.25;100.00;93206.97;2569287;23;20004;-85
2023/02/28 00:50:40;;;;;;;7.72;4.03;;;;;;;-4.25;100.00;93206.97;2582718;22;20030;-85
2023/02/28 00:51:42;;;;;;;6.95;4.25;;;;;;;-4.37;100.00;93205.03;2579906;23;20069;-85
2023/02/28 00:52:43;;;;;;;4.03;3.53;;;;;;;-4.42;100.00;93197.41;2570243;23;20001;-87
2023/02/28 00:53:44;;;;;;;5.75;4.25;;;;;;;-4.31;100.00;93198.53;2569950;23;20405;-84
2023/02/28 00:54:45;;;;;;;5.88;4.15;;;;;;;-4.42;100.00;93205.25;2570264;23;20004;-85
2023/02/28 00:55:47;;;;;;;5.90;3.55;;;;;;;-4.35;100.00;93203.63;2569791;23;20000;-85
2023/02/28 00:56:49;;;;;;;7.07;4.05;;;;;;;-4.37;100.00;93205.03;2570776;22;20080;-86
2023/02/28 00:57:49;;;;;;;6.35;4.20;;;;;;;-4.30;100.00;93202.69;2582315;22;20004;-85
2023/02/28 00:58:51;;;;;;;4.40;3.40;;;;;;;-4.32;100.00;93194.41;2569836;23;20004;-85
2023/02/28 00:59:54;;;;;;;6.50;4.38;;;;;;;-4.28;100.00;93199.75;2558080;23;20032;-87
2023/02/28 01:00:55;;;;;;;6.55;4.28;;;;;;;-4.32;100.00;93202.25;2570807;22;20150;-85
2023/02/28 01:01:56;;;;;;;6.57;4.00;;;;;;;-4.30;100.00;93205.31;2570966;23;20039;-84
2023/02/28 01:02:57;;;;;;;5.15;4.50;;;;;;;-4.38;100.00;93206.91;2575062;22;20004;-84
2023/02/28 01:03:58;;;;;;;5.90;4.25;;;;;;;-4.37;100.00;93200.59;2579581;23;20075;-85
2023/02/28 01:04:59;;;;;;;6.00;4.03;;;;;;;-4.28;100.00;93203.13;2559713;23;20112;-84
2023/02/28 01:06:01;;;;;;;6.70;4.38;;;;;;;-4.25;100.00;93204.34;2570144;22;20501;-86
2023/02/28 01:07:02;;;;;;;4.80;4.30;;;;;;;-4.38;100.00;93199.06;2581977;22;20082;-86
2023/02/28 01:08:04;;;;;;;4.68;3.92;;;;;;;-4.34;100.00;93196.59;2568979;23;20008;-84
2023/02/28 01:09:06;;;;;;;6.05;3.92;;;;;;;-4.27;100.00;93191.59;2566729;23;19993;-85
2023/02/28 01:10:10;;;;;;;4.75;3.33;;;;;;;-4.34;100.00;93201.81;2583178;22;20495;-85
2023/02/28 01:11:14;;;;;;;4.95;4.25;;;;;;;-4.26;100.00;93197.56;2595466;22;19996;-84
2023/02/28 01:12:15;;;;;;;6.07;4.05;;;;;;;-4.37;100.00;93192.00;2576394;23;20005;-85
2023/02/28 01:13:23;;;;;;;5.50;4.22;;;;;;;-4.35;100.00;93195.03;2575062;22;20011;-85
2023/02/28 01:14:24;;;;;;;5.28;3.70;;;;;;;-4.45;100.00;93195.44;2579221;23;19991;-85
2023/02/28 01:15:25;;;;;;;6.10;3.95;;;;;;;-4.44;100.00;93194.34;2575451;23;20009;-84
2023/02/28 01:16:26;;;;;;;5.93;3.85;;;;;;;-4.38;100.00;93199.06;2570006;23;19993;-85
2023/02/28 01:17:29;;;;;;;5.60;3.97;;;;;;;-4.36;100.00;93196.13;2567168;23;20037;-86
2023/02/28 01:18:31;;;;;;;5.93;4.03;;;;;;;-4.43;100.00;93198.50;2561113;23;20001;-85
2023/02/28 01:19:35;;;;;;;4.78;4.13;;;;;;;-4.40;100.00;93196.00;2557644;23;20083;-85
2023/02/28 01:20:37;;;;;;;4.72;3.53;;;;;;;-4.32;100.00;93200.38;2559587;23;20028;-85
2023/02/28 01:21:38;;;;;;;5.55;4.10;;;;;;;-4.40;100.00;93197.84;2570583;23;20008;-85
2023/02/28 01:22:40;;;;;;;5.05;3.60;;;;;;;-4.22;100.00;93194.00;2582751;22;20004;-87
2023/02/28 01:23:50;;;;;;;4.10;3.70;;;;;;;-4.31;100.00;93188.88;2594990;22;20778;-86
2023/02/28 01:24:51;;;;;;;4.93;4.07;;;;;;;-4.45;100.00;93203.25;2584840;22;20064;-84
2023/02/28 01:25:52;;;;;;;4.85;3.67;;;;;;;-4.40;100.00;93196.00;2582838;22;20574;-84
2023/02/28 01:26:53;;;;;;;6.32;3.95;;;;;;;-4.49;100.00;93194.56;2570040;23;20328;-85
2023/02/28 01:27:54;;;;;;;4.38;3.60;;;;;;;-4.56;100.00;93198.44;2570183;22;20011;-85
2023/02/28 01:28:55;;;;;;;5.63;3.58;;;;;;;-4.47;100.00;93208.06;2595152;22;20111;-86
2023/02/28 01:29:56;;;;;;;5.40;3.70;;;;;;;-4.51;100.00;93199.34;2581984;23;20060;-84
2023/02/28 01:30:57;;;;;;;7.57;3.60;;;;;;;-4.49;100.00;93194.56;2569751;22;20083;-86
2023/02/28 01:31:59;;;;;;;5.38;3.53;;;;;;;-4.48;100.00;93201.28;2583737;22;20003;-86
2023/02/28 01:33:01;;;;;;;4.22;3.40;;;;;;;-4.38;100.00;93199.06;2582514;22;19996;-85
2023/02/28 01:34:05;;;;;;;5.28;3.58;;;;;;;-4.37;100.00;93194.59;2582222;22;20004;-87
2023/02/28 01:35:06;;;;;;;5.22;3.72;;;;;;;-4.50;100.00;93203.47;2569507;23;20009;-84
2023/02/28 01:36:15;;;;;;;6.05;3.50;;;;;;;-4.52;100.00;93200.41;2570609;22;20004;-86
2023/02/28 01:37:16;;;;;;;3.65;3.20;;;;;;;-4.47;100.00;93195.78;2572068;23;20015;-85
2023/02/28 01:38:17;;;;;;;4.53;3.58;;;;;;;-4.54;100.00;93203.34;2570049;22;20407;-86
2023/02/28 01:39:18;;;;;;;3.97;3.58;;;;;;;-4.53;100.00;93194.41;2569584;23;20008;-85
2023/02/28 01:40:19;;;;;;;4.32;3.70;;;;;;;-4.45;100.00;93196.19;2569907;22;20051;-84
2023/02/28 01:41:29;;;;;;;5.88;3.70;;;;;;;-4.38;100.00;93195.69;2582380;23;20023;-86
2023/02/28 01:42:30;;;;;;;4.78;3.10;;;;;;;-4.24;100.00;93193.56;2584480;22;20012;-84
2023/02/28 01:43:57;;;;;;;3.97;3.53;;;;;;;-4.51;100.00;93194.13;2582735;23;20008;-85
2023/02/28 01:45:02;;;;;;;4.70;3.58;;;;;;;-4.47;100.00;93193.16;2587703;22;20110;-85
2023/02/28 01:46:03;;;;;;;4.03;3.63;;;;;;;-4.45;100.00;93198.81;2583904;22;20046;-84
2023/02/28 01:47:04;;;;;;;4.13;3.60;;;;;;;-4.38;100.00;93201.69;2583428;22;20103;-86
2023/02/28 01:48:08;;;;;;;5.47;4.05;;;;;;;-4.46;100.00;93199.13;2595402;22;20435;-86
2023/02/28 01:49:16;;;;;;;4.85;3.70;;;;;;;-4.42;100.00;93200.03;2595120;22;19999;-86
2023/02/28 01:50:24;;;;;;;4.18;3.67;;;;;;;-4.46;100.00;93202.50;2595105;22;20026;-85
2023/02/28 01:51:39;;;;;;;4.20;3.50;;;;;;;-4.37;100.00;93202.44;2608022;22;20049;-85
2023/02/28 01:52:41;;;;;;;4.22;3.80;;;;;;;-4.29;100.00;93200.84;2582036;23;20054;-85
2023/02/28 01:53:52;;;;;;;3.90;3.55;;;;;;;-4.24;100.00;93203.25;2557437;23;20011;-86
2023/02/28 01:54:56;;;;;;;4.00;3.60;;;;;;;-4.45;100.00;93201.41;2560745;23;20079;-85
2023/02/28 01:55:58;;;;;;;3.97;3.55;;;;;;;-4.52;100.00;93197.78;2558583;23;20000;-84
2023/02/28 01:57:05;;;;;;;5.53;3.78;;;;;;;-4.39;100.00;93192.34;2557053;23;20011;-87
2023/02/28 01:58:08;;;;;;;4.65;3.70;;;;;;;-4.41;100.00;93194.47;2560253;23;20008;-85
2023/02/28 01:59:34;;;;;;;5.55;3.67;;;;;;;-4.49;100.00;93191.94;2576585;22;20062;-83
2023/02/28 02:00:40;;;;;;;5.38;3.88;;;;;;;-4.44;100.00;93192.50;2576870;23;20019;-86
2023/02/28 02:01:41;;;;;;;4.65;3.30;;;;;;;-4.37;100.00;93192.00;2559735;23;20439;-84
2023/02/28 02:03:00;;;;;;;3.65;3.35;;;;;;;-4.47;100.00;93187.19;2557343;23;20339;-85
2023/02/28 02:04:03;;;;;;;3.80;3.33;;;;;;;-4.48;100.00;93188.25;2564721;23;20340;-85
2023/02/28 02:05:11;;;;;;;4.18;3.58;;;;;;;-4.44;100.00;93184.69;2557541;23;20443;-85
2023/02/28 02:06:12;;;;;;;5.57;3.88;;;;;;;-4.58;100.00;93192.00;2559538;23;20009;-85
2023/02/28 02:07:14;;;;;;;4.00;3.42;;;;;;;-4.59;100.00;93186.03;2568980;22;20447;-85
2023/02/28 02:08:26;;;;;;;4.72;3.63;;;;;;;-4.44;100.00;93189.91;2582021;22;20077;-87
2023/02/28 02:09:29;;;;;;;5.32;3.42;;;;;;;-4.41;100.00;93178.84;2582252;23;20012;-85
2023/02/28 02:10:47;;;;;;;6.10;3.70;;;;;;;-4.54;100.00;93189.53;2569433;22;20422;-84
2023/02/28 02:11:48;;;;;;;5.68;3.35;;;;;;;-4.37;100.00;93187.53;2594880;22;20373;-87
2023/02/28 02:13:17;;;;;;;5.40;3.88;;;;;;;-4.41;100.00;93188.50;2569876;23;20416;-87
2023/02/28 02:14:38;;;;;;;3.45;3.13;;;;;;;-4.51;100.00;93184.44;2568152;23;19996;-83
2023/02/28 02:16:09;;;;;;;4.30;3.50;;;;;;;-4.50;100.00;93183.34;2577562;22;20756;-85
2023/02/28 02:41:46;;;;;;;5.00;3.45;;;;;;;-4.95;100.00;93191.06;2620424;22;19930;-87
2023/02/28 02:42:56;;;;;;;4.35;3.53;;;;;;;-4.86;100.00;93183.94;2600135;22;20058;-86
2023/02/28 02:44:06;;;;;;;4.20;3.58;;;;;;;-4.73;100.00;93182.94;2577096;22;20099;-86
2023/02/28 02:45:14;;;;;;;4.38;3.95;;;;;;;-4.77;100.00;93179.41;2589896;22;20007;-86
2023/02/28 02:46:23;;;;;;;4.50;3.58;;;;;;;-4.73;100.00;93187.38;2587610;22;20028;-86
2023/02/28 02:47:30;;;;;;;5.63;3.67;;;;;;;-4.77;100.00;93181.28;2577472;22;20467;-84
2023/02/28 02:48:36;;;;;;;4.07;3.78;;;;;;;-4.75;100.00;93176.50;2575435;22;20475;-88
2023/02/28 02:49:40;;;;;;;4.85;3.97;;;;;;;-4.86;100.00;93178.72;2576078;22;20138;-86
2023/02/28 02:50:52;;;;;;;6.85;3.72;;;;;;;-4.86;100.00;93181.34;2575426;22;20414;-87
2023/02/28 02:51:58;;;;;;;5.18;3.55;;;;;;;-4.85;100.00;93182.84;2591382;22;20003;-87
2023/02/28 02:53:04;;;;;;;6.22;3.75;;;;;;;-5.02;100.00;93180.34;2588259;22;20000;-88
2023/02/28 02:54:15;;;;;;;3.72;3.35;;;;;;;-4.83;100.00;93172.84;2587868;22;20730;-86
2023/02/28 02:55:18;;;;;;;4.50;3.67;;;;;;;-4.78;100.00;93180.50;2588332;22;20008;-89
2023/02/28 02:56:25;;;;;;;4.68;3.83;;;;;;;-4.65;100.00;93170.91;2574488;22;20208;-89
2023/02/28 02:57:33;;;;;;;6.05;3.63;;;;;;;-4.67;100.00;93175.66;2576381;22;20028;-86
2023/02/28 02:58:42;;;;;;;5.30;3.88;;;;;;;-4.68;100.00;93174.91;2588141;22;20004;-86
2023/02/28 02:59:44;;;;;;;4.22;3.67;;;;;;;-4.62;100.00;93173.63;2576386;22;20011;-87
2023/02/28 03:00:51;;;;;;;4.35;3.67;;;;;;;-4.81;100.00;93173.31;2574534;22;20034;-86
2023/02/28 03:02:12;;;;;;;4.10;3.70;;;;;;;-4.88;100.00;93181.63;2586002;23;20505;-88
2023/02/28 03:03:17;;;;;;;6.18;4.03;;;;;;;-4.85;100.00;93175.78;2578049;23;20007;-87
2023/02/28 03:04:21;;;;;;;5.80;3.95;;;;;;;-4.98;100.00;93179.41;2563001;23;20005;-87
2023/02/28 03:05:46;;;;;;;5.05;3.67;;;;;;;-4.93;100.00;93173.25;2574412;23;20075;-88
2023/02/28 03:06:48;;;;;;;5.68;3.90;;;;;;;-4.94;100.00;93169.13;2567950;23;20107;-87
2023/02/28 03:07:49;;;;;;;6.25;4.10;;;;;;;-4.97;100.00;93169.75;2573965;22;20004;-87
2023/02/28 03:08:51;;;;;;;4.53;3.55;;;;;;;-4.90;100.00;93177.81;2598774;22;20488;-86
2023/02/28 03:09:56;;;;;;;4.35;3.80;;;;;;;-5.02;100.00;93172.53;2598621;22;20078;-88
2023/02/28 03:11:00;;;;;;;5.43;3.88;;;;;;;-5.03;100.00;93174.38;2562778;23;20071;-85
2023/02/28 03:12:03;;;;;;;4.30;3.90;;;;;;;-4.79;100.00;93170.38;2562231;23;20001;-87
2023/02/28 03:13:31;;;;;;;4.30;3.90;;;;;;;-4.71;100.00;93170.31;2574417;22;20414;-87
2023/02/28 03:14:53;;;;;;;5.75;3.80;;;;;;;-4.80;100.00;93172.22;2579157;23;20008;-86
2023/02/28 03:16:10;;;;;;;4.03;3.60;;;;;;;-4.98;100.00;93171.59;2582214;22;20004;-89
2023/02/28 03:17:31;;;;;;;7.55;4.03;;;;;;;-5.13;100.00;93167.69;2564295;23;20013;-87
2023/02/28 03:18:35;;;;;;;4.22;3.80;;;;;;;-5.06;100.00;93167.94;2561696;23;20093;-87
2023/02/28 03:19:48;;;;;;;4.68;3.92;;;;;;;-4.91;100.00;93169.25;2562645;23;20019;-86
2023/02/28 03:20:55;;;;;;;4.65;3.72;;;;;;;-5.06;100.00;93167.94;2566039;23;20447;-86
2023/02/28 03:22:15;;;;;;;4.50;4.03;;;;;;;-5.12;100.00;93176.28;2563705;23;20009;-85
2023/02/28 03:23:21;;;;;;;5.78;3.75;;;;;;;-5.08;100.00;93175.34;2582047;22;20101;-88
2023/02/28 03:24:22;;;;;;;5.25;3.92;;;;;;;-5.06;100.00;93172.41;2586969;22;20008;-87
2023/02/28 03:25:50;;;;;;;3.97;3.63;;;;;;;-4.89;100.00;93168.91;2573862;23;20004;-86
2023/02/28 03:27:03;;;;;;;6.53;4.00;;;;;;;-5.01;100.00;93167.00;2572625;23;20031;-85
2023/02/28 03:28:16;;;;;;;5.22;3.65;;;;;;;-4.92;100.00;93174.75;2576240;23;20004;-88
2023/02/28 03:29:28;;;;;;;4.50;4.10;;;;;;;-4.97;100.00;93162.69;2578796;22;20008;-87
2023/02/28 03:30:46;;;;;;;5.70;3.65;;;;;;;-4.87;100.00;93166.78;2586421;22;20410;-87
2023/02/28 03:31:55;;;;;;;4.88;3.80;;;;;;;-5.03;100.00;93173.63;2573979;23;20415;-87
2023/02/28 03:33:16;;;;;;;5.95;4.25;;;;;;;-5.08;100.00;93170.13;2561519;23;20413;-88
2023/02/28 03:34:28;;;;;;;3.83;3.22;;;;;;;-5.24;100.00;93169.13;2567146;23;20004;-88
2023/02/28 03:35:45;;;;;;;5.40;3.70;;;;;;;-5.13;100.00;93170.31;2562965;23;20408;-88
2023/02/28 03:36:53;;;;;;;5.38;3.90;;;;;;;-5.06;100.00;93165.34;2565242;23;20931;-90
2023/02/28 03:38:06;;;;;;;4.28;3.85;;;;;;;-5.03;100.00;93160.59;2573646;22;20019;-88
2023/02/28 03:39:14;;;;;;;4.60;4.13;;;;;;;-5.11;100.00;93165.53;2572928;23;20992;-87
2023/02/28 03:40:24;;;;;;;4.25;3.38;;;;;;;-5.04;100.00;93159.84;2560980;23;20413;-87
2023/02/28 03:41:34;;;;;;;4.35;3.95;;;;;;;-5.06;100.00;93160.13;2571942;23;20474;-87
2023/02/28 03:42:39;;;;;;;6.15;4.03;;;;;;;-5.16;100.00;93160.50;2561711;23;20024;-85
2023/02/28 03:43:50;;;;;;;5.22;3.53;;;;;;;-5.23;100.00;93169.88;2573296;22;20083;-89
2023/02/28 03:45:00;;;;;;;4.47;4.07;;;;;;;-5.05;100.00;93171.31;2572172;23;20913;-87
2023/02/28 03:46:09;;;;;;;4.65;3.72;;;;;;;-4.97;100.00;93170.50;2574778;22;20039;-86
2023/02/28 03:47:16;;;;;;;4.28;3.88;;;;;;;-5.12;100.00;93169.22;2572088;23;20407;-87
2023/02/28 03:48:23;;;;;;;6.70;4.55;;;;;;;-5.17;100.00;93171.25;2560768;23;20035;-89
2023/02/28 03:49:38;;;;;;;7.18;4.43;;;;;;;-5.22;100.00;93176.66;2561062;23;20652;-88
2023/02/28 03:50:45;;;;;;;4.50;3.78;;;;;;;-5.09;100.00;93176.41;2563863;23;20028;-88
2023/02/28 03:51:48;;;;;;;4.28;3.88;;;;;;;-5.19;100.00;93168.94;2560845;23;20012;-90
2023/02/28 03:53:07;;;;;;;5.20;4.10;;;;;;;-5.07;100.00;93173.47;2571775;22;20020;-88
2023/02/28 03:54:15;;;;;;;5.53;4.03;;;;;;;-4.93;100.00;93168.03;2574431;23;20411;-86
2023/02/28 03:55:18;;;;;;;3.80;3.50;;;;;;;-5.00;100.00;93171.16;2561453;23;20404;-88
2023/02/28 03:56:20;;;;;;;4.00;3.45;;;;;;;-5.01;100.00;93177.41;2571324;22;20001;-87
2023/02/28 03:57:34;;;;;;;6.53;4.40;;;;;;;-5.25;100.00;93178.03;2571182;23;20450;-85
2023/02/28 03:58:44;;;;;;;6.10;4.38;;;;;;;-5.23;100.00;93177.72;2562972;23;20020;-89
2023/02/28 03:59:54;;;;;;;4.80;3.97;;;;;;;-5.27;100.00;93174.97;2561807;23;20404;-85
2023/02/28 04:01:08;;;;;;;4.70;3.95;;;;;;;-5.21;100.00;93168.50;2574394;22;20008;-85
2023/02/28 04:02:09;;;;;;;7.72;4.40;;;;;;;-5.15;100.00;93169.84;2573358;23;20768;-88
2023/02/28 04:03:10;;;;;;;5.05;4.55;;;;;;;-5.22;100.00;93171.44;2558274;23;20412;-89
2023/02/28 04:04:12;;;;;;;4.57;4.10;;;;;;;-5.23;100.00;93165.44;2558426;23;20012;-88
2023/02/28 04:05:14;;;;;;;5.57;4.20;;;;;;;-5.29;100.00;93168.56;2570905;23;20009;-88
2023/02/28 04:06:18;;;;;;;4.78;4.18;;;;;;;-5.38;100.00;93173.81;2558707;23;20499;-88
2023/02/28 04:07:19;;;;;;;4.55;3.80;;;;;;;-5.21;100.00;93171.13;2572632;22;20458;-87
2023/02/28 04:08:22;;;;;;;7.28;4.30;;;;;;;-5.18;100.00;93177.53;2583132;22;20747;-88
2023/02/28 04:09:23;;;;;;;6.47;4.30;;;;;;;-5.26;100.00;93163.50;2570984;23;20001;-87
2023/02/28 04:10:24;;;;;;;5.20;4.35;;;;;;;-5.12;100.00;93165.84;2557944;23;20012;-89
2023/02/28 04:11:28;;;;;;;5.75;4.32;;;;;;;-5.30;100.00;93178.22;2570659;23;20486;-88
2023/02/28 04:12:33;;;;;;;5.50;4.50;;;;;;;-5.22;100.00;93176.66;2559375;23;20021;-89
2023/02/28 04:13:34;;;;;;;5.75;4.20;;;;;;;-5.16;100.00;93170.16;2559444;23;20040;-86
2023/02/28 04:14:39;;;;;;;8.25;4.70;;;;;;;-5.31;100.00;93174.09;2570992;22;20493;-88
2023/02/28 04:15:40;;;;;;;5.68;4.65;;;;;;;-5.37;100.00;93175.34;2583494;22;20022;-87
2023/02/28 04:16:42;;;;;;;9.15;4.60;;;;;;;-5.30;100.00;93175.63;2570688;23;20066;-88
2023/02/28 04:17:43;;;;;;;4.80;4.40;;;;;;;-5.36;100.00;93182.81;2571051;22;20411;-86
2023/02/28 04:18:47;;;;;;;5.25;4.38;;;;;;;-5.41;100.00;93185.59;2570375;23;20017;-85
2023/02/28 04:19:48;;;;;;;4.85;3.90;;;;;;;-5.44;100.00;93188.09;2570842;23;20481;-88
2023/02/28 04:20:50;;;;;;;5.28;4.78;;;;;;;-5.53;100.00;93182.94;2570777;22;20016;-86
2023/02/28 04:22:02;;;;;;;5.65;4.22;;;;;;;-5.27;100.00;93190.59;2583447;22;20000;-89
2023/02/28 04:23:04;;;;;;;5.30;4.80;;;;;;;-5.34;100.00;93185.88;2572968;23;20001;-86
2023/02/28 04:24:06;;;;;;;4.57;4.18;;;;;;;-5.41;100.00;93183.00;2558417;23;20415;-85
2023/02/28 04:25:08;;;;;;;6.38;4.43;;;;;;;-5.36;100.00;93179.47;2559336;23;20009;-88
2023/02/28 04:26:09;;;;;;;6.22;4.57;;;;;;;-5.43;100.00;93182.56;2570829;22;20090;-86
2023/02/28 04:27:10;;;;;;;4.97;4.47;;;;;;;-5.24;100.00;93184.75;2570737;23;20012;-85
2023/02/28 04:28:22;;;;;;;4.78;4.30;;;;;;;-5.11;100.00;93183.00;2570265;23;20091;-85
2023/02/28 04:29:26;;;;;;;6.55;4.43;;;;;;;-5.30;100.00;93183.44;2572493;23;20032;-86
2023/02/28 04:30:29;;;;;;;4.95;4.43;;;;;;;-5.24;100.00;93181.41;2571910;22;20011;-86
2023/02/28 04:31:32;;;;;;;6.13;4.82;;;;;;;-5.39;100.00;93182.72;2570779;23;20004;-86
2023/02/28 04:32:34;;;;;;;6.15;4.75;;;;;;;-5.48;100.00;93174.19;2571163;22;20399;-86
2023/02/28 04:33:35;;;;;;;6.10;4.47;;;;;;;-5.43;100.00;93179.19;2570750;23;21233;-87
2023/02/28 04:34:38;;;;;;;5.07;4.18;;;;;;;-5.18;100.00;93174.91;2557779;23;20448;-85
2023/02/28 04:35:47;;;;;;;5.07;4.50;;;;;;;-5.43;100.00;93185.16;2574380;22;20399;-86
2023/02/28 04:36:53;;;;;;;5.20;4.53;;;;;;;-5.48;100.00;93180.16;2570288;23;20020;-87
2023/02/28 04:37:54;;;;;;;5.25;4.50;;;;;;;-5.43;100.00;93179.97;2560036;23;20005;-86
2023/02/28 04:38:57;;;;;;;6.47;4.65;;;;;;;-5.61;100.00;93187.09;2570170;22;20483;-87
2023/02/28 04:40:02;;;;;;;4.97;4.47;;;;;;;-5.40;100.00;93184.56;2570504;23;20628;-87
2023/02/28 04:41:03;;;;;;;6.25;4.18;;;;;;;-5.43;100.00;93187.00;2572279;22;20004;-86
2023/02/28 04:42:05;;;;;;;5.38;4.72;;;;;;;-5.51;100.00;93182.59;2569694;23;20494;-87
2023/02/28 04:43:16;;;;;;;6.20;4.57;;;;;;;-5.33;100.00;93184.81;2572303;22;20441;-86
2023/02/28 04:44:17;;;;;;;7.85;4.50;;;;;;;-5.30;100.00;93182.66;2584071;22;20011;-88
2023/02/28 04:45:18;;;;;;;5.18;4.65;;;;;;;-5.33;100.00;93182.19;2570336;23;20090;-88
2023/02/28 04:46:19;;;;;;;7.85;4.63;;;;;;;-5.24;100.00;93182.16;2557987;23;20001;-88
2023/02/28 04:47:25;;;;;;;8.65;4.82;;;;;;;-5.34;100.00;93179.91;2559321;23;20004;-87
2023/02/28 04:48:32;;;;;;;8.82;4.43;;;;;;;-5.39;100.00;93187.91;2559509;23;20016;-86
2023/02/28 04:49:34;;;;;;;6.60;4.88;;;;;;;-5.42;100.00;93183.31;2560229;23;20394;-86
2023/02/28 04:50:41;;;;;;;5.00;4.47;;;;;;;-5.40;100.00;93189.75;2571345;22;20000;-87
2023/02/28 04:51:43;;;;;;;5.95;4.53;;;;;;;-5.29;100.00;93181.59;2583795;22;20091;-88
2023/02/28 04:52:47;;;;;;;5.40;4.28;;;;;;;-5.30;100.00;93185.28;2595602;22;20100;-87
2023/02/28 04:53:56;;;;;;;5.00;4.50;;;;;;;-5.40;100.00;93187.16;2595251;22;20007;-87
2023/02/28 04:54:57;;;;;;;5.13;4.63;;;;;;;-5.34;100.00;93185.13;2572138;23;20027;-87
2023/02/28 04:55:58;;;;;;;6.60;4.63;;;;;;;-5.39;100.00;93186.06;2558224;23;20653;-86
2023/02/28 04:57:00;;;;;;;5.57;4.50;;;;;;;-5.40;100.00;93184.56;2570836;22;20031;-88
2023/02/28 04:58:02;;;;;;;5.63;5.00;;;;;;;-5.37;100.00;93185.75;2570903;23;20039;-88
2023/02/28 04:59:03;;;;;;;5.40;4.88;;;;;;;-5.35;100.00;93192.19;2557834;23;20495;-87
2023/02/28 05:00:07;;;;;;;7.25;4.60;;;;;;;-5.38;100.00;93184.22;2558084;23;20012;-89
2023/02/28 05:01:26;;;;;;;5.55;4.30;;;;;;;-5.22;100.00;93182.63;2559141;23;20001;-88
2023/02/28 05:02:27;;;;;;;6.25;4.57;;;;;;;-5.24;100.00;93181.41;2578182;22;20001;-87
2023/02/28 05:03:28;;;;;;;4.93;4.38;;;;;;;-5.49;100.00;93183.03;2570496;23;20016;-87
2023/02/28 05:04:29;;;;;;;5.85;4.68;;;;;;;-5.47;100.00;93189.47;2558414;23;20008;-86
2023/02/28 05:05:31;;;;;;;5.30;4.80;;;;;;;-5.49;100.00;93183.03;2558180;23;20032;-86
2023/02/28 05:06:42;;;;;;;4.78;4.07;;;;;;;-5.51;100.00;93180.75;2562012;23;20005;-84
2023/02/28 05:07:44;;;;;;;5.80;4.57;;;;;;;-5.53;100.00;93182.94;2570435;23;20008;-87
2023/02/28 05:08:47;;;;;;;4.80;4.32;;;;;;;-5.36;100.00;93182.06;2570939;22;20903;-85
2023/02/28 05:09:55;;;;;;;5.80;4.75;;;;;;;-5.44;100.00;93177.69;2571122;23;20487;-88
2023/02/28 05:10:56;;;;;;;6.65;5.10;;;;;;;-5.28;100.00;93183.88;2560065;23;20490;-86
2023/02/28 05:11:57;;;;;;;7.20;5.22;;;;;;;-5.16;100.00;93173.53;2557744;23;20051;-85
2023/02/28 05:13:11;;;;;;;6.45;4.97;;;;;;;-5.32;100.00;93185.56;2559298;23;20008;-87
2023/02/28 05:14:14;;;;;;;7.32;4.50;;;;;;;-5.30;100.00;93190.47;2572399;23;20486;-86
2023/02/28 05:15:16;;;;;;;6.10;4.60;;;;;;;-5.31;100.00;93187.13;2571324;22;20988;-87
2023/02/28 05:16:18;;;;;;;7.78;4.78;;;;;;;-5.39;100.00;93186.06;2582905;23;20000;-88
2023/02/28 05:17:20;;;;;;;7.38;4.45;;;;;;;-5.46;100.00;93183.19;2570980;23;20419;-87
2023/02/28 05:18:26;;;;;;;6.13;4.60;;;;;;;-5.46;100.00;93185.78;2558224;23;20416;-87
2023/02/28 05:19:29;;;;;;;5.93;4.85;;;;;;;-5.32;100.00;93188.94;2572725;22;21247;-87
2023/02/28 05:20:30;;;;;;;5.47;4.80;;;;;;;-5.24;100.00;93184.75;2570741;23;20418;-86
2023/02/28 05:21:50;;;;;;;5.13;4.40;;;;;;;-5.37;100.00;93189.13;2566093;22;20005;-86
2023/02/28 05:22:57;;;;;;;5.13;4.45;;;;;;;-5.48;100.00;93189.81;2571450;23;20039;-84
2023/02/28 05:24:01;;;;;;;6.00;4.90;;;;;;;-5.44;100.00;93181.03;2581829;22;20007;-87
2023/02/28 05:25:06;;;;;;;4.82;4.28;;;;;;;-5.50;100.00;93184.88;2570385;23;20937;-86
2023/02/28 05:26:08;;;;;;;5.47;4.45;;;;;;;-5.51;100.00;93191.19;2568416;23;20011;-85
2023/02/28 05:27:17;;;;;;;5.40;4.35;;;;;;;-5.54;100.00;93185.81;2567919;22;20423;-86
2023/02/28 05:28:19;;;;;;;6.72;5.35;;;;;;;-5.40;100.00;93191.56;2570561;23;20465;-85
2023/02/28 05:29:25;;;;;;;5.85;4.70;;;;;;;-5.58;100.00;93191.66;2581834;22;20456;-88